sensor_id;sensor_type;location;lat;lon;timestamp;pressure;altitude;pressure_sealevel;temperature;humidity
4143;BME280;2085;51.052;6.958;2022-07-23T00:00:20;101392.00;;;17.67;60.40
4143;BME280;2085;51.052;6.958;2022-07-23T00:02:46;101395.31;;;17.70;60.48
4143;BME280;2085;51.052;6.958;2022-07-23T00:05:13;101392.00;;;17.67;60.32
4143;BME280;2085;51.052;6.958;2022-07-23T00:07:40;101389.34;;;17.67;60.46
4143;BME280;2085;51.052;6.958;2022-07-23T00:10:07;101389.88;;;17.72;60.41
4143;BME280;2085;51.052;6.958;2022-07-23T00:12:35;101403.84;;;17.75;60.18
4143;BME280;2085;51.052;6.958;2022-07-23T00:15:03;101402.13;;;17.74;60.39
4143;BME280;2085;51.052;6.958;2022-07-23T00:17:30;101396.91;;;17.73;60.30
4143;BME280;2085;51.052;6.958;2022-07-23T00:19:57;101398.81;;;17.71;60.23
4143;BME280;2085;51.052;6.958;2022-07-23T00:22:24;101401.63;;;17.69;60.21
4143;BME280;2085;51.052;6.958;2022-07-23T00:24:50;101403.28;;;17.70;60.46
4143;BME280;2085;51.052;6.958;2022-07-23T00:27:17;101396.06;;;17.72;60.49
4143;BME280;2085;51.052;6.958;2022-07-23T00:29:45;101400.97;;;17.78;60.62
4143;BME280;2085;51.052;6.958;2022-07-23T00:32:11;101405.00;;;17.84;60.39
4143;BME280;2085;51.052;6.958;2022-07-23T00:34:38;101396.69;;;17.89;60.39
4143;BME280;2085;51.052;6.958;2022-07-23T00:37:05;101393.84;;;17.92;60.33
4143;BME280;2085;51.052;6.958;2022-07-23T00:39:31;101391.91;;;17.94;60.30
4143;BME280;2085;51.052;6.958;2022-07-23T00:41:58;101390.09;;;17.94;60.79
4143;BME280;2085;51.052;6.958;2022-07-23T00:44:26;101394.47;;;17.95;60.64
4143;BME280;2085;51.052;6.958;2022-07-23T00:46:56;101399.78;;;17.95;60.47
4143;BME280;2085;51.052;6.958;2022-07-23T00:49:24;101397.22;;;17.94;60.55
4143;BME280;2085;51.052;6.958;2022-07-23T00:51:51;101392.22;;;17.89;60.53
4143;BME280;2085;51.052;6.958;2022-07-23T00:54:18;101381.34;;;17.79;60.92
4143;BME280;2085;51.052;6.958;2022-07-23T00:56:46;101383.59;;;17.73;61.19
4143;BME280;2085;51.052;6.958;2022-07-23T00:59:13;101379.47;;;17.69;61.31
4143;BME280;2085;51.052;6.958;2022-07-23T01:01:40;101379.53;;;17.67;61.46
4143;BME280;2085;51.052;6.958;2022-07-23T01:04:08;101375.63;;;17.73;61.18
4143;BME280;2085;51.052;6.958;2022-07-23T01:06:37;101378.81;;;17.78;61.06
4143;BME280;2085;51.052;6.958;2022-07-23T01:09:05;101370.50;;;17.82;60.97
4143;BME280;2085;51.052;6.958;2022-07-23T01:11:33;101369.44;;;17.85;60.93
4143;BME280;2085;51.052;6.958;2022-07-23T01:14:08;101378.19;;;17.87;60.74
4143;BME280;2085;51.052;6.958;2022-07-23T01:16:34;101376.47;;;17.86;60.83
4143;BME280;2085;51.052;6.958;2022-07-23T01:19:01;101376.47;;;17.86;61.00
4143;BME280;2085;51.052;6.958;2022-07-23T01:21:30;101386.03;;;17.89;61.10
4143;BME280;2085;51.052;6.958;2022-07-23T01:23:58;101379.66;;;17.91;61.08
4143;BME280;2085;51.052;6.958;2022-07-23T01:26:25;101376.00;;;17.92;61.12
4143;BME280;2085;51.052;6.958;2022-07-23T01:28:51;101382.31;;;17.91;61.16
4143;BME280;2085;51.052;6.958;2022-07-23T01:31:18;101377.09;;;17.90;61.17
4143;BME280;2085;51.052;6.958;2022-07-23T01:33:45;101372.63;;;17.90;61.20
4143;BME280;2085;51.052;6.958;2022-07-23T01:36:11;101377.84;;;17.92;61.28
4143;BME280;2085;51.052;6.958;2022-07-23T01:38:38;101375.06;;;17.93;61.26
4143;BME280;2085;51.052;6.958;2022-07-23T01:41:06;101367.19;;;17.92;61.21
4143;BME280;2085;51.052;6.958;2022-07-23T01:43:32;101362.91;;;17.89;61.41
4143;BME280;2085;51.052;6.958;2022-07-23T01:45:59;101368.38;;;17.88;61.35
4143;BME280;2085;51.052;6.958;2022-07-23T01:48:25;101372.84;;;17.87;61.32
4143;BME280;2085;51.052;6.958;2022-07-23T01:50:52;101364.97;;;17.86;61.44
4143;BME280;2085;51.052;6.958;2022-07-23T01:53:19;101362.38;;;17.84;61.30
4143;BME280;2085;51.052;6.958;2022-07-23T01:55:46;101356.44;;;17.80;61.35
4143;BME280;2085;51.052;6.958;2022-07-23T01:58:14;101364.00;;;17.74;61.40
4143;BME280;2085;51.052;6.958;2022-07-23T02:00:40;101360.06;;;17.67;61.29
4143;BME280;2085;51.052;6.958;2022-07-23T02:03:07;101352.38;;;17.62;61.42
4143;BME280;2085;51.052;6.958;2022-07-23T02:05:34;101362.41;;;17.59;61.47
4143;BME280;2085;51.052;6.958;2022-07-23T02:08:01;101359.94;;;17.56;61.54
4143;BME280;2085;51.052;6.958;2022-07-23T02:10:28;101350.31;;;17.53;61.57
4143;BME280;2085;51.052;6.958;2022-07-23T02:12:54;101348.75;;;17.51;61.66
4143;BME280;2085;51.052;6.958;2022-07-23T02:15:22;101360.34;;;17.50;61.60
4143;BME280;2085;51.052;6.958;2022-07-23T02:17:49;101358.00;;;17.45;61.73
4143;BME280;2085;51.052;6.958;2022-07-23T02:20:16;101365.34;;;17.42;61.80
4143;BME280;2085;51.052;6.958;2022-07-23T02:22:42;101361.91;;;17.39;61.77
4143;BME280;2085;51.052;6.958;2022-07-23T02:25:09;101361.28;;;17.36;61.83
4143;BME280;2085;51.052;6.958;2022-07-23T02:27:36;101359.69;;;17.33;61.91
4143;BME280;2085;51.052;6.958;2022-07-23T02:30:04;101359.69;;;17.33;61.94
4143;BME280;2085;51.052;6.958;2022-07-23T02:32:32;101353.59;;;17.31;61.88
4143;BME280;2085;51.052;6.958;2022-07-23T02:34:59;101358.28;;;17.28;62.01
4143;BME280;2085;51.052;6.958;2022-07-23T02:37:26;101354.22;;;17.22;62.05
4143;BME280;2085;51.052;6.958;2022-07-23T02:39:53;101360.81;;;17.17;62.15
4143;BME280;2085;51.052;6.958;2022-07-23T02:42:19;101360.16;;;17.13;62.00
4143;BME280;2085;51.052;6.958;2022-07-23T02:44:46;101368.44;;;17.09;62.12
4143;BME280;2085;51.052;6.958;2022-07-23T02:47:13;101362.50;;;17.05;62.18
4143;BME280;2085;51.052;6.958;2022-07-23T02:49:40;101373.31;;;17.02;62.26
4143;BME280;2085;51.052;6.958;2022-07-23T02:52:07;101360.31;;;16.98;62.11
4143;BME280;2085;51.052;6.958;2022-07-23T02:54:35;101363.94;;;16.97;62.40
4143;BME280;2085;51.052;6.958;2022-07-23T02:57:02;101363.09;;;16.96;62.27
4143;BME280;2085;51.052;6.958;2022-07-23T02:59:28;101359.66;;;16.94;62.36
4143;BME280;2085;51.052;6.958;2022-07-23T03:01:55;101359.88;;;16.91;62.47
4143;BME280;2085;51.052;6.958;2022-07-23T03:04:22;101367.09;;;16.89;62.16
4143;BME280;2085;51.052;6.958;2022-07-23T03:06:50;101361.03;;;16.87;62.42
4143;BME280;2085;51.052;6.958;2022-07-23T03:09:17;101364.75;;;16.84;62.41
4143;BME280;2085;51.052;6.958;2022-07-23T03:11:43;101366.88;;;16.79;62.55
4143;BME280;2085;51.052;6.958;2022-07-23T03:14:10;101368.97;;;16.74;62.47
4143;BME280;2085;51.052;6.958;2022-07-23T03:16:38;101372.78;;;16.70;62.44
4143;BME280;2085;51.052;6.958;2022-07-23T03:19:05;101361.59;;;16.65;62.66
4143;BME280;2085;51.052;6.958;2022-07-23T03:21:31;101361.91;;;16.61;62.74
4143;BME280;2085;51.052;6.958;2022-07-23T03:24:00;101371.00;;;16.57;62.69
4143;BME280;2085;51.052;6.958;2022-07-23T03:26:27;101366.81;;;16.52;62.87
4143;BME280;2085;51.052;6.958;2022-07-23T03:28:53;101372.31;;;16.49;63.02
4143;BME280;2085;51.052;6.958;2022-07-23T03:31:20;101367.94;;;16.48;62.97
4143;BME280;2085;51.052;6.958;2022-07-23T03:33:46;101370.72;;;16.47;63.14
4143;BME280;2085;51.052;6.958;2022-07-23T03:36:13;101366.28;;;16.47;62.91
4143;BME280;2085;51.052;6.958;2022-07-23T03:38:40;101368.81;;;16.49;62.90
4143;BME280;2085;51.052;6.958;2022-07-23T03:41:08;101369.66;;;16.49;62.93
4143;BME280;2085;51.052;6.958;2022-07-23T03:43:34;101369.66;;;16.49;62.98
4143;BME280;2085;51.052;6.958;2022-07-23T03:46:01;101364.44;;;16.48;63.09
4143;BME280;2085;51.052;6.958;2022-07-23T03:48:27;101363.78;;;16.44;62.99
4143;BME280;2085;51.052;6.958;2022-07-23T03:50:54;101364.66;;;16.45;63.24
4143;BME280;2085;51.052;6.958;2022-07-23T03:53:21;101366.44;;;16.44;63.02
4143;BME280;2085;51.052;6.958;2022-07-23T03:55:47;101363.91;;;16.43;63.04
4143;BME280;2085;51.052;6.958;2022-07-23T03:58:15;101367.59;;;16.40;63.01
4143;BME280;2085;51.052;6.958;2022-07-23T04:00:42;101370.25;;;16.40;63.10
4143;BME280;2085;51.052;6.958;2022-07-23T04:03:08;101364.06;;;16.40;63.11
4143;BME280;2085;51.052;6.958;2022-07-23T04:05:35;101371.19;;;16.39;62.92
4143;BME280;2085;51.052;6.958;2022-07-23T04:08:01;101375.69;;;16.39;63.32
4143;BME280;2085;51.052;6.958;2022-07-23T04:10:28;101362.50;;;16.37;63.13
4143;BME280;2085;51.052;6.958;2022-07-23T04:12:55;101370.47;;;16.37;63.21
4143;BME280;2085;51.052;6.958;2022-07-23T04:15:23;101372.16;;;16.38;63.29
4143;BME280;2085;51.052;6.958;2022-07-23T04:17:49;101372.91;;;16.40;63.30
4143;BME280;2085;51.052;6.958;2022-07-23T04:20:16;101375.38;;;16.43;63.26
4143;BME280;2085;51.052;6.958;2022-07-23T04:22:42;101376.03;;;16.47;63.24
4143;BME280;2085;51.052;6.958;2022-07-23T04:25:09;101377.63;;;16.49;63.23
4143;BME280;2085;51.052;6.958;2022-07-23T04:27:35;101373.09;;;16.51;63.22
4143;BME280;2085;51.052;6.958;2022-07-23T04:30:02;101380.09;;;16.52;63.14
4143;BME280;2085;51.052;6.958;2022-07-23T04:32:30;101374.69;;;16.54;63.17
4143;BME280;2085;51.052;6.958;2022-07-23T04:34:57;101388.84;;;16.55;63.21
4143;BME280;2085;51.052;6.958;2022-07-23T04:37:23;101382.44;;;16.57;63.24
4143;BME280;2085;51.052;6.958;2022-07-23T04:39:50;101392.94;;;16.60;63.22
4143;BME280;2085;51.052;6.958;2022-07-23T04:42:17;101396.34;;;16.62;63.46
4143;BME280;2085;51.052;6.958;2022-07-23T04:44:44;101400.50;;;16.66;63.32
4143;BME280;2085;51.052;6.958;2022-07-23T04:47:10;101404.78;;;16.69;63.17
4143;BME280;2085;51.052;6.958;2022-07-23T04:49:38;101408.94;;;16.73;63.17
4143;BME280;2085;51.052;6.958;2022-07-23T04:52:05;101421.09;;;16.77;63.10
4143;BME280;2085;51.052;6.958;2022-07-23T04:54:31;101420.88;;;16.80;63.18
4143;BME280;2085;51.052;6.958;2022-07-23T04:56:58;101419.63;;;16.85;63.21
4143;BME280;2085;51.052;6.958;2022-07-23T04:59:25;101421.16;;;16.89;63.18
4143;BME280;2085;51.052;6.958;2022-07-23T05:01:51;101435.84;;;16.95;63.54
4143;BME280;2085;51.052;6.958;2022-07-23T05:04:18;101433.44;;;17.31;63.49
4143;BME280;2085;51.052;6.958;2022-07-23T05:06:46;101427.38;;;17.94;62.81
4143;BME280;2085;51.052;6.958;2022-07-23T05:09:13;101428.22;;;18.58;61.95
4143;BME280;2085;51.052;6.958;2022-07-23T05:11:39;101428.81;;;19.22;61.31
4143;BME280;2085;51.052;6.958;2022-07-23T05:14:06;101437.28;;;19.74;60.88
4143;BME280;2085;51.052;6.958;2022-07-23T05:16:32;101428.63;;;20.17;60.02
4143;BME280;2085;51.052;6.958;2022-07-23T05:18:59;101435.56;;;20.53;59.48
4143;BME280;2085;51.052;6.958;2022-07-23T05:21:25;101429.59;;;20.71;59.62
4143;BME280;2085;51.052;6.958;2022-07-23T05:23:53;101435.38;;;20.87;59.32
4143;BME280;2085;51.052;6.958;2022-07-23T05:26:20;101440.75;;;20.87;59.61
4143;BME280;2085;51.052;6.958;2022-07-23T05:28:46;101435.13;;;20.90;59.65
4143;BME280;2085;51.052;6.958;2022-07-23T05:31:13;101434.63;;;20.97;59.70
4143;BME280;2085;51.052;6.958;2022-07-23T05:33:40;101434.16;;;20.80;59.90
4143;BME280;2085;51.052;6.958;2022-07-23T05:36:07;101438.47;;;20.61;60.44
4143;BME280;2085;51.052;6.958;2022-07-23T05:38:33;101444.06;;;20.69;60.59
4143;BME280;2085;51.052;6.958;2022-07-23T05:41:01;101440.56;;;21.00;60.11
4143;BME280;2085;51.052;6.958;2022-07-23T05:43:28;101439.28;;;21.38;59.93
4143;BME280;2085;51.052;6.958;2022-07-23T05:45:55;101437.19;;;21.62;59.61
4143;BME280;2085;51.052;6.958;2022-07-23T05:48:21;101443.19;;;21.75;59.47
4143;BME280;2085;51.052;6.958;2022-07-23T05:50:48;101441.25;;;21.77;59.09
4143;BME280;2085;51.052;6.958;2022-07-23T05:53:15;101448.16;;;21.79;59.91
4143;BME280;2085;51.052;6.958;2022-07-23T05:55:41;101448.09;;;21.91;59.62
4143;BME280;2085;51.052;6.958;2022-07-23T05:58:09;101450.75;;;22.02;59.57
4143;BME280;2085;51.052;6.958;2022-07-23T06:00:36;101451.06;;;22.08;59.58
4143;BME280;2085;51.052;6.958;2022-07-23T06:03:02;101448.09;;;22.11;59.62
4143;BME280;2085;51.052;6.958;2022-07-23T06:05:29;101454.28;;;22.02;59.51
4143;BME280;2085;51.052;6.958;2022-07-23T06:07:55;101451.06;;;21.88;60.05
4143;BME280;2085;51.052;6.958;2022-07-23T06:10:22;101457.09;;;22.01;59.84
4143;BME280;2085;51.052;6.958;2022-07-23T06:12:49;101454.88;;;22.06;59.63
4143;BME280;2085;51.052;6.958;2022-07-23T06:15:17;101458.44;;;22.16;59.74
4143;BME280;2085;51.052;6.958;2022-07-23T06:17:43;101459.63;;;22.23;59.80
4143;BME280;2085;51.052;6.958;2022-07-23T06:20:10;101454.88;;;22.36;59.22
4143;BME280;2085;51.052;6.958;2022-07-23T06:22:37;101461.75;;;22.29;59.39
4143;BME280;2085;51.052;6.958;2022-07-23T06:25:05;101460.78;;;22.30;59.54
4143;BME280;2085;51.052;6.958;2022-07-23T06:27:32;101469.28;;;22.35;59.59
4143;BME280;2085;51.052;6.958;2022-07-23T06:29:58;101464.28;;;22.51;59.38
4143;BME280;2085;51.052;6.958;2022-07-23T06:32:26;101459.03;;;22.50;58.91
4143;BME280;2085;51.052;6.958;2022-07-23T06:34:53;101464.28;;;22.51;59.53
4143;BME280;2085;51.052;6.958;2022-07-23T06:37:19;101457.50;;;22.57;59.26
4143;BME280;2085;51.052;6.958;2022-07-23T06:39:46;101462.41;;;22.73;59.29
4143;BME280;2085;51.052;6.958;2022-07-23T06:42:13;101464.09;;;22.83;58.69
4143;BME280;2085;51.052;6.958;2022-07-23T06:44:40;101467.19;;;22.79;58.51
4143;BME280;2085;51.052;6.958;2022-07-23T06:47:07;101461.03;;;22.57;59.27
4143;BME280;2085;51.052;6.958;2022-07-23T06:49:35;101470.13;;;22.36;59.58
4143;BME280;2085;51.052;6.958;2022-07-23T06:52:01;101461.88;;;21.97;60.44
4143;BME280;2085;51.052;6.958;2022-07-23T06:54:28;101470.47;;;21.59;60.65
4143;BME280;2085;51.052;6.958;2022-07-23T06:56:55;101469.72;;;21.25;61.40
4143;BME280;2085;51.052;6.958;2022-07-23T06:59:21;101475.50;;;20.99;61.72
4143;BME280;2085;51.052;6.958;2022-07-23T07:01:48;101474.34;;;20.69;62.43
4143;BME280;2085;51.052;6.958;2022-07-23T07:04:14;101478.72;;;20.59;62.94
4143;BME280;2085;51.052;6.958;2022-07-23T07:06:42;101484.56;;;20.64;63.02
4143;BME280;2085;51.052;6.958;2022-07-23T07:09:09;101487.22;;;20.64;62.63
4143;BME280;2085;51.052;6.958;2022-07-23T07:11:36;101480.41;;;20.60;62.50
4143;BME280;2085;51.052;6.958;2022-07-23T07:14:02;101488.94;;;20.65;62.58
4143;BME280;2085;51.052;6.958;2022-07-23T07:16:29;101485.03;;;20.69;62.33
4143;BME280;2085;51.052;6.958;2022-07-23T07:18:56;101488.47;;;20.71;62.31
4143;BME280;2085;51.052;6.958;2022-07-23T07:21:22;101484.56;;;20.75;61.83
4143;BME280;2085;51.052;6.958;2022-07-23T07:23:50;101493.28;;;20.77;61.99
4143;BME280;2085;51.052;6.958;2022-07-23T07:26:17;101495.00;;;20.78;61.53
4143;BME280;2085;51.052;6.958;2022-07-23T07:28:43;101500.34;;;20.78;61.78
4143;BME280;2085;51.052;6.958;2022-07-23T07:31:10;101500.84;;;20.72;61.65
4143;BME280;2085;51.052;6.958;2022-07-23T07:33:36;101500.34;;;20.67;61.73
4143;BME280;2085;51.052;6.958;2022-07-23T07:36:04;101493.19;;;20.68;62.13
4143;BME280;2085;51.052;6.958;2022-07-23T07:38:30;101499.88;;;20.73;62.02
4143;BME280;2085;51.052;6.958;2022-07-23T07:40:58;101499.38;;;20.79;61.96
4143;BME280;2085;51.052;6.958;2022-07-23T07:43:25;101507.38;;;20.90;62.07
4143;BME280;2085;51.052;6.958;2022-07-23T07:45:51;101511.03;;;21.01;61.81
4143;BME280;2085;51.052;6.958;2022-07-23T07:48:18;101506.16;;;21.17;61.88
4143;BME280;2085;51.052;6.958;2022-07-23T07:50:45;101502.09;;;21.33;61.76
4143;BME280;2085;51.052;6.958;2022-07-23T07:53:11;101498.88;;;21.51;61.83
4143;BME280;2085;51.052;6.958;2022-07-23T07:55:38;101506.06;;;21.71;61.34
4143;BME280;2085;51.052;6.958;2022-07-23T07:58:06;101514.03;;;21.93;61.17
4143;BME280;2085;51.052;6.958;2022-07-23T08:00:32;101507.25;;;22.10;61.38
4143;BME280;2085;51.052;6.958;2022-07-23T08:02:59;101507.16;;;22.21;61.35
4143;BME280;2085;51.052;6.958;2022-07-23T08:05:27;101514.97;;;22.24;60.89
4143;BME280;2085;51.052;6.958;2022-07-23T08:07:54;101511.84;;;22.19;60.94
4143;BME280;2085;51.052;6.958;2022-07-23T08:10:21;101523.13;;;22.22;61.03
4143;BME280;2085;51.052;6.958;2022-07-23T08:12:50;101514.38;;;22.20;61.24
4143;BME280;2085;51.052;6.958;2022-07-23T08:15:20;101523.66;;;22.16;61.16
4143;BME280;2085;51.052;6.958;2022-07-23T08:17:48;101522.22;;;22.12;60.89
4143;BME280;2085;51.052;6.958;2022-07-23T08:20:16;101525.56;;;22.05;61.19
4143;BME280;2085;51.052;6.958;2022-07-23T08:22:44;101529.16;;;21.94;61.07
4143;BME280;2085;51.052;6.958;2022-07-23T08:25:12;101523.66;;;21.96;61.32
4143;BME280;2085;51.052;6.958;2022-07-23T08:27:38;101532.63;;;22.06;61.37
4143;BME280;2085;51.052;6.958;2022-07-23T08:30:06;101527.19;;;22.17;60.91
4143;BME280;2085;51.052;6.958;2022-07-23T08:32:47;101533.19;;;22.30;60.80
4143;BME280;2085;51.052;6.958;2022-07-23T08:35:15;101532.56;;;22.38;60.88
4143;BME280;2085;51.052;6.958;2022-07-23T08:37:41;101530.44;;;22.41;60.86
4143;BME280;2085;51.052;6.958;2022-07-23T08:40:09;101529.19;;;22.45;60.65
4143;BME280;2085;51.052;6.958;2022-07-23T08:42:35;101528.69;;;22.51;60.71
4143;BME280;2085;51.052;6.958;2022-07-23T08:45:03;101530.97;;;22.56;60.63
4143;BME280;2085;51.052;6.958;2022-07-23T08:47:31;101542.34;;;22.48;60.36
4143;BME280;2085;51.052;6.958;2022-07-23T08:49:58;101534.88;;;22.52;60.43
4143;BME280;2085;51.052;6.958;2022-07-23T08:52:26;101539.97;;;22.55;60.41
4143;BME280;2085;51.052;6.958;2022-07-23T08:54:53;101539.41;;;22.51;60.30
4143;BME280;2085;51.052;6.958;2022-07-23T08:57:20;101549.69;;;22.46;60.72
4143;BME280;2085;51.052;6.958;2022-07-23T08:59:47;101541.63;;;22.46;60.45
4143;BME280;2085;51.052;6.958;2022-07-23T09:02:13;101550.16;;;22.51;60.86
4143;BME280;2085;51.052;6.958;2022-07-23T09:04:40;101556.94;;;22.55;60.63
4143;BME280;2085;51.052;6.958;2022-07-23T09:07:08;101556.66;;;22.58;60.17
4143;BME280;2085;51.052;6.958;2022-07-23T09:09:35;101549.59;;;22.57;60.63
4143;BME280;2085;51.052;6.958;2022-07-23T09:12:02;101553.53;;;22.53;60.34
4143;BME280;2085;51.052;6.958;2022-07-23T09:14:37;101550.91;;;22.63;60.65
4143;BME280;2085;51.052;6.958;2022-07-23T09:17:11;101550.28;;;22.80;60.41
4143;BME280;2085;51.052;6.958;2022-07-23T09:19:38;101541.59;;;22.97;60.31
4143;BME280;2085;51.052;6.958;2022-07-23T09:22:20;101545.41;;;22.95;59.87
4143;BME280;2085;51.052;6.958;2022-07-23T09:25:05;101551.47;;;22.97;60.05
4143;BME280;2085;51.052;6.958;2022-07-23T09:27:51;101546.47;;;23.13;60.25
4143;BME280;2085;51.052;6.958;2022-07-23T09:30:19;101555.56;;;23.31;59.90
4143;BME280;2085;51.052;6.958;2022-07-23T09:33:04;101550.78;;;23.44;59.76
4143;BME280;2085;51.052;6.958;2022-07-23T09:35:48;101556.03;;;23.55;59.43
4143;BME280;2085;51.052;6.958;2022-07-23T09:38:18;101557.28;;;23.51;59.64
4143;BME280;2085;51.052;6.958;2022-07-23T09:40:46;101565.19;;;23.43;59.34
4143;BME280;2085;51.052;6.958;2022-07-23T09:43:13;101569.88;;;23.41;59.72
4143;BME280;2085;51.052;6.958;2022-07-23T09:45:52;101569.06;;;23.50;59.82
4143;BME280;2085;51.052;6.958;2022-07-23T09:48:19;101568.19;;;23.60;59.75
4143;BME280;2085;51.052;6.958;2022-07-23T09:50:45;101566.66;;;23.67;59.67
4143;BME280;2085;51.052;6.958;2022-07-23T09:53:25;101573.75;;;23.68;59.42
4143;BME280;2085;51.052;6.958;2022-07-23T09:55:53;101569.31;;;23.47;59.06
4143;BME280;2085;51.052;6.958;2022-07-23T09:58:21;101559.31;;;23.19;59.13
4143;BME280;2085;51.052;6.958;2022-07-23T10:00:51;101558.84;;;22.95;59.63
4143;BME280;2085;51.052;6.958;2022-07-23T10:03:19;101553.75;;;22.92;59.66
4143;BME280;2085;51.052;6.958;2022-07-23T10:05:46;101561.13;;;22.99;59.47
4143;BME280;2085;51.052;6.958;2022-07-23T10:08:16;101558.06;;;23.13;59.40
4143;BME280;2085;51.052;6.958;2022-07-23T10:10:46;101550.44;;;23.28;59.19
4143;BME280;2085;51.052;6.958;2022-07-23T10:13:14;101551.31;;;23.38;59.26
4143;BME280;2085;51.052;6.958;2022-07-23T10:15:58;101552.09;;;23.50;59.12
4143;BME280;2085;51.052;6.958;2022-07-23T10:18:25;101548.97;;;23.54;58.64
4143;BME280;2085;51.052;6.958;2022-07-23T10:20:52;101549.97;;;23.53;58.70
4143;BME280;2085;51.052;6.958;2022-07-23T10:23:24;101544.44;;;23.45;58.59
4143;BME280;2085;51.052;6.958;2022-07-23T10:26:00;101543.00;;;23.41;59.11
4143;BME280;2085;51.052;6.958;2022-07-23T10:28:44;101544.88;;;23.50;58.98
4143;BME280;2085;51.052;6.958;2022-07-23T10:31:25;101544.31;;;23.66;58.63
4143;BME280;2085;51.052;6.958;2022-07-23T10:33:59;101545.16;;;23.76;58.43
4143;BME280;2085;51.052;6.958;2022-07-23T10:36:44;101548.84;;;23.85;58.78
4143;BME280;2085;51.052;6.958;2022-07-23T10:39:17;101548.28;;;23.91;58.68
4143;BME280;2085;51.052;6.958;2022-07-23T10:41:46;101550.38;;;23.97;58.50
4143;BME280;2085;51.052;6.958;2022-07-23T10:44:14;101547.41;;;24.00;58.07
4143;BME280;2085;51.052;6.958;2022-07-23T10:47:03;101540.47;;;24.07;58.12
4143;BME280;2085;51.052;6.958;2022-07-23T10:49:52;101535.22;;;24.15;58.42
4143;BME280;2085;51.052;6.958;2022-07-23T10:52:24;101531.44;;;24.18;57.85
4143;BME280;2085;51.052;6.958;2022-07-23T10:54:53;101526.44;;;24.23;57.80
4143;BME280;2085;51.052;6.958;2022-07-23T10:57:22;101527.44;;;24.31;58.26
4143;BME280;2085;51.052;6.958;2022-07-23T11:00:09;101529.53;;;24.37;58.11
4143;BME280;2085;51.052;6.958;2022-07-23T11:02:37;101538.31;;;24.39;58.11
4143;BME280;2085;51.052;6.958;2022-07-23T11:05:06;101533.47;;;24.43;57.92
4143;BME280;2085;51.052;6.958;2022-07-23T11:07:33;101536.72;;;24.47;57.91
4143;BME280;2085;51.052;6.958;2022-07-23T11:10:00;101537.97;;;24.52;57.54
4143;BME280;2085;51.052;6.958;2022-07-23T11:12:35;101529.47;;;24.57;57.64
4143;BME280;2085;51.052;6.958;2022-07-23T11:15:04;101524.06;;;24.66;57.89
4143;BME280;2085;51.052;6.958;2022-07-23T11:17:33;101529.00;;;24.71;57.39
4143;BME280;2085;51.052;6.958;2022-07-23T11:20:13;101528.81;;;24.72;57.43
4143;BME280;2085;51.052;6.958;2022-07-23T11:22:48;101523.31;;;24.74;57.12
4143;BME280;2085;51.052;6.958;2022-07-23T11:25:29;101526.84;;;24.74;57.14
4143;BME280;2085;51.052;6.958;2022-07-23T11:28:08;101523.56;;;24.80;57.36
4143;BME280;2085;51.052;6.958;2022-07-23T11:30:40;101520.44;;;24.85;57.09
4143;BME280;2085;51.052;6.958;2022-07-23T11:33:19;101526.25;;;24.90;56.77
4143;BME280;2085;51.052;6.958;2022-07-23T11:35:48;101522.72;;;24.90;56.79
4143;BME280;2085;51.052;6.958;2022-07-23T11:38:17;101522.94;;;24.96;56.78
4143;BME280;2085;51.052;6.958;2022-07-23T11:40:45;101521.09;;;24.97;56.59
4143;BME280;2085;51.052;6.958;2022-07-23T11:43:13;101517.72;;;24.95;56.94
4143;BME280;2085;51.052;6.958;2022-07-23T11:45:42;101517.84;;;24.93;56.56
4143;BME280;2085;51.052;6.958;2022-07-23T11:48:16;101510.78;;;24.92;56.36
4143;BME280;2085;51.052;6.958;2022-07-23T11:50:43;101516.03;;;24.94;56.61
4143;BME280;2085;51.052;6.958;2022-07-23T11:53:09;101514.53;;;24.99;56.57
4143;BME280;2085;51.052;6.958;2022-07-23T11:55:36;101515.34;;;25.09;56.57
4143;BME280;2085;51.052;6.958;2022-07-23T11:58:03;101504.50;;;25.19;56.46
4143;BME280;2085;51.052;6.958;2022-07-23T12:00:32;101520.63;;;25.28;56.06
4143;BME280;2085;51.052;6.958;2022-07-23T12:03:00;101517.59;;;25.31;55.84
4143;BME280;2085;51.052;6.958;2022-07-23T12:05:29;101514.63;;;25.35;56.21
4143;BME280;2085;51.052;6.958;2022-07-23T12:07:57;101512.63;;;25.37;56.21
4143;BME280;2085;51.052;6.958;2022-07-23T12:10:27;101507.28;;;25.45;55.88
4143;BME280;2085;51.052;6.958;2022-07-23T12:12:56;101512.22;;;25.49;55.81
4143;BME280;2085;51.052;6.958;2022-07-23T12:15:25;101512.16;;;25.41;55.48
4143;BME280;2085;51.052;6.958;2022-07-23T12:17:53;101516.00;;;25.39;55.32
4143;BME280;2085;51.052;6.958;2022-07-23T12:20:22;101513.78;;;25.34;55.46
4143;BME280;2085;51.052;6.958;2022-07-23T12:22:50;101518.00;;;25.37;55.46
4143;BME280;2085;51.052;6.958;2022-07-23T12:25:18;101506.94;;;25.40;55.33
4143;BME280;2085;51.052;6.958;2022-07-23T12:27:45;101516.09;;;25.47;55.23
4143;BME280;2085;51.052;6.958;2022-07-23T12:30:21;101518.03;;;25.54;55.35
4143;BME280;2085;51.052;6.958;2022-07-23T12:32:49;101516.59;;;25.60;55.25
4143;BME280;2085;51.052;6.958;2022-07-23T12:35:17;101518.34;;;25.69;55.08
4143;BME280;2085;51.052;6.958;2022-07-23T12:37:46;101512.88;;;25.79;54.79
4143;BME280;2085;51.052;6.958;2022-07-23T12:40:22;101520.81;;;25.80;54.61
4143;BME280;2085;51.052;6.958;2022-07-23T12:42:51;101518.41;;;25.77;54.61
4143;BME280;2085;51.052;6.958;2022-07-23T12:45:18;101524.19;;;25.82;54.88
4143;BME280;2085;51.052;6.958;2022-07-23T12:48:02;101521.88;;;25.87;54.58
4143;BME280;2085;51.052;6.958;2022-07-23T12:50:54;101521.50;;;25.82;54.48
4143;BME280;2085;51.052;6.958;2022-07-23T12:53:22;101526.22;;;25.80;54.14
4143;BME280;2085;51.052;6.958;2022-07-23T12:55:50;101525.06;;;25.83;53.93
4143;BME280;2085;51.052;6.958;2022-07-23T12:58:19;101534.84;;;25.84;54.06
4143;BME280;2085;51.052;6.958;2022-07-23T13:03:37;101528.59;;;25.83;54.10
4143;BME280;2085;51.052;6.958;2022-07-23T13:06:07;101527.97;;;25.89;54.13
4143;BME280;2085;51.052;6.958;2022-07-23T13:08:36;101525.50;;;25.96;53.88
4143;BME280;2085;51.052;6.958;2022-07-23T13:11:04;101541.59;;;26.05;53.64
4143;BME280;2085;51.052;6.958;2022-07-23T13:13:33;101538.75;;;26.07;53.58
4143;BME280;2085;51.052;6.958;2022-07-23T13:16:00;101532.78;;;26.03;53.15
4143;BME280;2085;51.052;6.958;2022-07-23T13:18:28;101533.44;;;25.97;53.55